Airfield :
LOGIN :

Register | Disclaimer

   EN    FR    IT 

 










Legend :    VFR   Marginal VFR   IFR   Intensive IFR   Very Intensive IFR
Visi :
Ceiling :
>= 8 km
>= 3000ft
5 to 8 km
1000 to 3000 ft
1500m to 5 km
500 to 1000 ft
800 to 1500m
200 to 500 ft
< 800m
< 200 ft
Symbols :   Thunderstorms  Fog  Heavy snow  Heavy precipitations  Wind > 20 kt
SIGMETs :     Misc.  Thunderstorms  Icing  Turbulence  Mountain Waves  Volcanic Ashes






- Airport Elevation : 56 ft
- IATA code : BZR


LFMU - Beziers / Vias

CURRENT METAR :
  • 010530Z AUTO 29010KT CAVOK 07/03 Q1021 TEMPO FEW040TCU BKN060

EXPIRED METARs :
  • 010500Z AUTO 29009KT CAVOK 06/03 Q1021 TEMPO FEW040TCU BKN060
  • 010430Z AUTO 28008KT CAVOK 05/03 Q1021 TEMPO FEW040TCU BKN060
  • 010400Z AUTO 29007KT CAVOK 05/03 Q1021 NOSIG
  • 010330Z AUTO 30006KT CAVOK 03/03 Q1021 NOSIG
  • 010300Z AUTO 28007KT CAVOK 02/02 Q1022 NOSIG

TAF TAF LFMU
Valid from the 01 at 03:00 until the 02 at 03:00 UTC


010200Z 0103/0203 27012KT CAVOK
PROB30
TEMPO 0106/0109 -RA FEW040TCU BKN060
TEMPO 0110/0119 29015G25KT BKN030
ATIS : +33 4 67 90 88 88



MET'MAP, your aeronautical weather chart ! - Copyright ORBIFLY December 2007 - Disclaimer

ORBIFLY MET'MAP TEAM :

Programming & Development : Alexandra Zaïnal
Concept & original design : Baudouin d'Aumeries
Assistance for programming : Marc-Olivier Méhu
Technical & hardware support : Manuel Goepfert

Contact : metmap@orbifly.com




SOURCES & CREDITS :

   NOAA